Time;durP1;ratioP1;P1;durP2;ratioP2;P2;SDS_P1;SDS_P2;PMS_P1;PMS_P2;Temp;Humidity;BMP_temperature;BMP_pressure;BME280_temperature;BME280_humidity;BME280_pressure;Samples;Min_cycle;Max_cycle;Signal;HPM_P1;HPM_P2
2022/03/28 00:00:52;;;;;;;6.65;1.50;;;34.90;16.00;;;;;;4985060;28;20086;-71
2022/03/28 00:03:19;;;;;;;11.15;1.98;;;34.80;16.90;;;;;;4988629;28;20070;-67
2022/03/28 00:05:45;;;;;;;13.88;2.17;;;34.80;17.70;;;;;;4988366;28;20060;-70
2022/03/28 00:08:12;;;;;;;7.63;1.50;;;34.80;17.70;;;;;;4987487;28;20055;-68
2022/03/28 00:10:39;;;;;;;8.93;1.98;;;34.70;17.70;;;;;;4987894;28;20074;-69
2022/03/28 00:13:05;;;;;;;15.70;1.83;;;34.60;17.70;;;;;;4983527;28;20056;-71
2022/03/28 00:15:32;;;;;;;14.35;1.52;;;34.50;17.80;;;;;;4973138;28;20929;-70
2022/03/28 00:17:58;;;;;;;9.55;1.55;;;34.40;17.70;;;;;;4974158;28;20064;-70
2022/03/28 00:20:25;;;;;;;5.28;1.40;;;34.30;17.70;;;;;;4980028;28;20069;-70
2022/03/28 00:22:51;;;;;;;10.27;1.60;;;34.30;17.90;;;;;;4985630;28;20074;-71
2022/03/28 00:25:17;;;;;;;4.82;1.60;;;34.20;17.90;;;;;;4976594;28;20057;-71
2022/03/28 00:27:44;;;;;;;10.70;1.80;;;34.10;17.80;;;;;;4977839;28;20151;-71
2022/03/28 00:30:11;;;;;;;10.07;1.30;;;34.10;18.00;;;;;;4981437;28;20426;-70
2022/03/28 00:32:38;;;;;;;8.43;1.45;;;34.00;17.70;;;;;;4985327;28;20068;-70
2022/03/28 00:35:05;;;;;;;9.93;1.83;;;33.80;18.30;;;;;;4987878;28;20092;-72
2022/03/28 00:37:31;;;;;;;4.93;1.65;;;33.70;18.50;;;;;;4975838;28;20073;-71
2022/03/28 00:39:57;;;;;;;6.85;1.70;;;33.70;18.40;;;;;;4988349;28;20105;-73
2022/03/28 00:42:24;;;;;;;6.38;1.50;;;33.60;18.50;;;;;;4977060;28;20114;-70
2022/03/28 00:44:50;;;;;;;7.65;1.50;;;33.50;18.50;;;;;;4985973;28;20096;-72
2022/03/28 00:47:16;;;;;;;11.20;1.80;;;33.50;18.50;;;;;;4976676;28;20061;-69
2022/03/28 00:49:43;;;;;;;9.30;1.98;;;33.40;18.60;;;;;;4986491;28;20091;-69
2022/03/28 00:52:10;;;;;;;13.15;1.73;;;33.20;18.70;;;;;;4971784;28;20068;-71
2022/03/28 00:54:39;;;;;;;6.45;1.75;;;33.10;18.70;;;;;;4972027;28;20082;-71
2022/03/28 00:57:06;;;;;;;12.13;2.53;;;32.90;18.80;;;;;;4987856;28;20558;-72
2022/03/28 00:59:33;;;;;;;16.70;2.08;;;32.90;19.10;;;;;;4975977;28;20551;-70
2022/03/28 01:02:02;;;;;;;9.07;1.52;;;33.00;18.60;;;;;;4978622;28;20139;-71
2022/03/28 01:04:29;;;;;;;4.45;1.40;;;32.90;18.40;;;;;;4987923;28;20179;-72
2022/03/28 01:06:56;;;;;;;9.02;2.10;;;32.90;18.20;;;;;;4985702;28;20156;-71
2022/03/28 01:09:22;;;;;;;9.00;2.50;;;32.60;18.30;;;;;;4969220;28;20080;-72
2022/03/28 01:11:51;;;;;;;13.13;1.70;;;32.50;18.30;;;;;;4987354;28;20527;-72
2022/03/28 01:14:17;;;;;;;21.13;2.28;;;32.40;18.10;;;;;;4983094;28;20075;-73
2022/03/28 01:19:29;;;;;;;9.35;1.60;;;32.00;18.10;;;;;;4990275;28;20171;-70
2022/03/28 01:21:56;;;;;;;16.45;2.10;;;31.90;18.30;;;;;;4990186;28;20575;-71
2022/03/28 01:24:22;;;;;;;9.13;1.75;;;31.80;18.50;;;;;;4994342;28;20170;-70
2022/03/28 01:26:50;;;;;;;8.02;1.85;;;31.80;18.40;;;;;;4984892;28;20079;-70
2022/03/28 01:29:17;;;;;;;13.32;2.03;;;31.60;18.40;;;;;;4977230;28;20161;-71
2022/03/28 01:31:43;;;;;;;15.25;1.95;;;31.50;18.30;;;;;;4983959;28;20074;-70
2022/03/28 01:34:20;;;;;;;20.88;2.97;;;31.40;18.30;;;;;;4994189;28;20116;-73
2022/03/28 01:36:47;;;;;;;7.93;2.17;;;31.30;17.60;;;;;;4978754;28;20075;-70
2022/03/28 01:39:20;;;;;;;7.70;2.35;;;31.20;17.70;;;;;;4990791;28;20104;-70
2022/03/28 01:41:46;;;;;;;10.50;1.83;;;31.10;17.40;;;;;;4987957;28;20083;-71
2022/03/28 01:44:13;;;;;;;16.27;2.78;;;30.90;17.40;;;;;;4982260;28;20085;-72
2022/03/28 01:46:47;;;;;;;8.15;2.72;;;30.80;17.60;;;;;;4974289;28;20076;-71
2022/03/28 01:49:17;;;;;;;15.73;2.97;;;30.80;17.90;;;;;;4984260;28;20072;-71
2022/03/28 01:51:44;;;;;;;7.97;2.90;;;30.70;18.00;;;;;;4975506;28;20085;-74
2022/03/28 01:54:11;;;;;;;9.85;2.85;;;30.60;18.20;;;;;;4986952;28;20805;-73
2022/03/28 01:56:38;;;;;;;7.72;2.30;;;30.60;18.40;;;;;;4983681;28;20096;-73
2022/03/28 01:59:06;;;;;;;6.43;2.35;;;30.40;18.60;;;;;;4976488;28;20070;-73
2022/03/28 02:01:34;;;;;;;16.33;2.88;;;30.30;18.70;;;;;;4978694;28;20079;-73
2022/03/28 02:04:00;;;;;;;10.77;2.45;;;30.20;19.10;;;;;;4975715;28;20120;-73
2022/03/28 02:06:28;;;;;;;19.00;2.40;;;30.10;19.50;;;;;;4991515;28;20101;-72
2022/03/28 02:08:55;;;;;;;14.98;2.80;;;30.00;20.10;;;;;;4974873;28;20077;-72
2022/03/28 02:11:21;;;;;;;26.85;3.78;;;29.90;20.30;;;;;;4984503;28;20402;-71
2022/03/28 02:13:47;;;;;;;12.63;3.85;;;29.80;20.60;;;;;;4986683;28;20109;-72
2022/03/28 02:16:14;;;;;;;22.95;4.03;;;29.60;20.80;;;;;;4984080;28;20629;-74
2022/03/28 02:18:43;;;;;;;26.02;3.95;;;29.50;20.80;;;;;;4986481;28;20406;-71
2022/03/28 02:21:09;;;;;;;29.40;5.20;;;29.40;20.80;;;;;;4997822;28;20120;-71
2022/03/28 02:23:36;;;;;;;22.98;4.90;;;29.40;20.60;;;;;;4980326;28;20086;-71
2022/03/28 02:26:03;;;;;;;25.88;4.47;;;29.30;21.50;;;;;;4989306;28;20133;-70
2022/03/28 02:28:29;;;;;;;38.67;5.45;;;29.30;23.20;;;;;;4977522;28;20138;-71
2022/03/28 02:30:56;;;;;;;36.55;4.53;;;29.30;24.90;;;;;;4983222;28;20074;-72
2022/03/28 02:33:23;;;;;;;29.55;4.57;;;29.30;26.60;;;;;;4986186;28;20085;-71
2022/03/28 02:35:50;;;;;;;21.48;3.88;;;29.20;28.40;;;;;;4989518;28;20081;-71
2022/03/28 02:38:16;;;;;;;24.83;3.63;;;29.20;29.90;;;;;;4989957;28;20101;-70
2022/03/28 02:40:43;;;;;;;26.25;3.42;;;29.10;31.50;;;;;;4979463;28;20445;-63
2022/03/28 02:43:09;;;;;;;23.02;3.53;;;29.10;32.50;;;;;;4987015;28;20087;-69
2022/03/28 02:45:37;;;;;;;27.50;4.10;;;29.10;33.30;;;;;;4990323;28;20555;-69
2022/03/28 02:48:04;;;;;;;18.13;3.80;;;29.00;33.40;;;;;;4991535;28;20078;-69
2022/03/28 02:50:33;;;;;;;23.83;3.90;;;28.90;33.70;;;;;;4974421;28;20075;-70
2022/03/28 02:53:00;;;;;;;34.85;5.15;;;28.80;34.20;;;;;;4988751;28;20157;-71
2022/03/28 02:55:26;;;;;;;23.98;3.72;;;28.80;35.00;;;;;;4987208;28;20074;-69
2022/03/28 02:57:53;;;;;;;24.95;4.22;;;28.70;35.30;;;;;;4991539;28;20086;-71
2022/03/28 03:00:20;;;;;;;18.05;3.63;;;28.60;35.80;;;;;;4984237;28;20078;-71
2022/03/28 03:02:47;;;;;;;30.00;4.18;;;28.50;36.40;;;;;;4991973;28;20097;-72
2022/03/28 03:05:14;;;;;;;25.60;4.53;;;28.40;37.10;;;;;;4975584;28;20525;-69
2022/03/28 03:07:40;;;;;;;20.20;4.28;;;28.30;37.80;;;;;;4989734;28;20426;-70
2022/03/28 03:10:08;;;;;;;19.15;4.00;;;28.30;38.10;;;;;;4974944;28;20074;-70
2022/03/28 03:12:35;;;;;;;12.80;4.18;;;28.20;38.20;;;;;;4973388;28;20106;-71
2022/03/28 03:15:01;;;;;;;15.38;4.20;;;28.10;38.10;;;;;;4990115;28;20084;-72
2022/03/28 03:17:27;;;;;;;16.77;4.30;;;28.00;38.20;;;;;;4991282;28;20070;-70
2022/03/28 03:19:54;;;;;;;19.38;4.88;;;27.90;38.30;;;;;;4982913;28;20086;-70
2022/03/28 03:22:20;;;;;;;31.52;5.82;;;27.80;38.30;;;;;;4988569;28;20093;-72
2022/03/28 03:24:46;;;;;;;19.98;4.70;;;27.80;38.20;;;;;;4988809;28;20084;-66
2022/03/28 03:27:13;;;;;;;20.83;4.63;;;27.70;38.20;;;;;;4984565;28;20098;-68
2022/03/28 03:29:41;;;;;;;14.98;3.88;;;27.50;38.40;;;;;;4972023;28;20081;-68
2022/03/28 03:32:08;;;;;;;15.02;4.38;;;27.40;38.70;;;;;;4975639;28;20094;-68
2022/03/28 03:34:35;;;;;;;27.40;5.68;;;27.30;39.40;;;;;;4981841;28;20078;-65
2022/03/28 03:37:02;;;;;;;33.38;6.65;;;27.10;40.10;;;;;;4975138;28;20604;-66
2022/03/28 03:39:29;;;;;;;28.30;6.03;;;27.20;40.40;;;;;;4989583;28;20113;-66
2022/03/28 03:41:56;;;;;;;22.45;5.75;;;27.10;40.50;;;;;;4988719;28;20081;-68
2022/03/28 03:44:22;;;;;;;19.63;5.40;;;27.00;40.80;;;;;;4983326;28;20281;-65
2022/03/28 03:46:52;;;;;;;22.00;5.22;;;27.00;41.10;;;;;;4989143;28;20085;-70
2022/03/28 03:49:18;;;;;;;23.73;6.00;;;26.90;41.00;;;;;;4979560;28;20077;-67
2022/03/28 03:51:45;;;;;;;19.98;4.95;;;26.90;41.20;;;;;;4982506;28;20101;-65
2022/03/28 03:54:12;;;;;;;20.52;4.25;;;26.70;40.40;;;;;;4978777;28;20212;-68
2022/03/28 03:56:39;;;;;;;24.05;4.50;;;26.70;40.40;;;;;;4992350;28;20097;-68
2022/03/28 03:59:05;;;;;;;20.88;4.40;;;26.60;40.60;;;;;;4994743;28;20534;-66
2022/03/28 04:01:32;;;;;;;17.80;5.72;;;26.60;40.30;;;;;;4979787;28;20069;-69
2022/03/28 04:03:58;;;;;;;22.65;4.55;;;26.50;40.20;;;;;;4985490;28;20086;-66
2022/03/28 04:06:25;;;;;;;23.92;4.65;;;26.40;40.30;;;;;;4981888;28;20101;-68
2022/03/28 04:08:52;;;;;;;21.02;4.10;;;26.30;40.60;;;;;;4988903;28;20530;-67
2022/03/28 04:11:18;;;;;;;17.63;3.55;;;26.30;41.00;;;;;;4989368;28;20077;-68
2022/03/28 04:13:45;;;;;;;27.85;4.57;;;26.30;41.10;;;;;;4987826;28;20160;-67
2022/03/28 04:16:11;;;;;;;17.85;4.00;;;26.20;40.70;;;;;;4987246;28;20085;-66
2022/03/28 04:18:37;;;;;;;25.67;4.72;;;26.20;40.10;;;;;;4992863;28;20545;-66
2022/03/28 04:21:04;;;;;;;16.48;3.88;;;26.10;40.20;;;;;;4988906;28;20082;-67
2022/03/28 04:23:31;;;;;;;23.00;4.25;;;26.00;40.40;;;;;;4972875;28;20098;-66
2022/03/28 04:25:57;;;;;;;22.13;4.15;;;26.00;40.60;;;;;;4988452;28;20610;-66
2022/03/28 04:28:24;;;;;;;21.98;4.18;;;25.90;40.70;;;;;;4988982;28;20089;-66
2022/03/28 04:30:53;;;;;;;13.13;3.33;;;25.80;41.00;;;;;;4984140;28;20553;-66
2022/03/28 04:33:19;;;;;;;20.50;4.05;;;25.70;41.50;;;;;;4971866;28;20093;-66
2022/03/28 04:35:46;;;;;;;15.13;3.85;;;25.70;42.10;;;;;;4988885;28;20597;-67
2022/03/28 04:38:12;;;;;;;22.10;3.92;;;25.50;42.30;;;;;;4979638;28;20113;-67
2022/03/28 04:40:39;;;;;;;25.83;4.15;;;25.50;42.80;;;;;;4981111;28;20569;-65
2022/03/28 04:43:06;;;;;;;10.93;3.75;;;25.40;43.40;;;;;;4970700;28;20097;-67
2022/03/28 04:45:33;;;;;;;21.27;4.70;;;25.30;44.50;;;;;;4977573;28;20197;-67
2022/03/28 04:48:00;;;;;;;29.67;4.57;;;25.20;44.70;;;;;;4975784;28;20089;-67
2022/03/28 04:50:27;;;;;;;25.92;3.63;;;24.90;45.00;;;;;;4985241;28;20522;-65
2022/03/28 04:52:54;;;;;;;19.05;3.15;;;24.80;45.20;;;;;;4981740;28;20094;-68
2022/03/28 04:55:20;;;;;;;23.15;3.38;;;24.80;45.10;;;;;;4979486;28;20082;-65
2022/03/28 04:57:47;;;;;;;23.88;3.78;;;24.90;45.10;;;;;;4978671;28;20082;-65
2022/03/28 05:00:14;;;;;;;21.63;4.28;;;24.80;44.70;;;;;;4969723;28;20089;-66
2022/03/28 05:02:40;;;;;;;19.15;3.28;;;24.80;44.60;;;;;;4986737;28;20132;-68
2022/03/28 05:05:08;;;;;;;17.85;3.80;;;24.70;44.80;;;;;;4987080;28;20120;-65
2022/03/28 05:07:35;;;;;;;25.10;2.72;;;24.70;44.90;;;;;;4989303;28;20156;-65
2022/03/28 05:10:03;;;;;;;19.25;3.10;;;24.70;44.80;;;;;;4988792;28;20178;-66
2022/03/28 05:12:32;;;;;;;22.85;3.05;;;24.70;44.70;;;;;;4974349;28;20152;-66
2022/03/28 05:14:59;;;;;;;17.05;3.60;;;24.60;44.50;;;;;;4972038;28;20113;-67
2022/03/28 05:17:27;;;;;;;17.50;3.65;;;24.50;44.40;;;;;;4986108;28;20069;-66
2022/03/28 05:19:55;;;;;;;10.23;3.03;;;24.40;44.30;;;;;;4977959;28;20078;-66
2022/03/28 05:22:23;;;;;;;13.65;2.95;;;24.50;44.40;;;;;;4976373;28;20173;-67
2022/03/28 05:24:51;;;;;;;15.00;2.95;;;24.50;44.30;;;;;;4974843;28;20553;-67
2022/03/28 05:27:18;;;;;;;20.58;3.55;;;24.50;43.90;;;;;;4979394;28;20066;-66
2022/03/28 05:29:45;;;;;;;20.92;3.60;;;24.40;43.80;;;;;;4970052;28;20128;-64
2022/03/28 05:32:12;;;;;;;17.75;3.83;;;24.30;43.50;;;;;;4979000;28;20078;-66
2022/03/28 05:34:38;;;;;;;18.63;4.43;;;24.30;43.30;;;;;;4988927;28;20082;-68
2022/03/28 05:37:09;;;;;;;14.32;3.42;;;24.30;43.10;;;;;;4976952;28;20149;-67
2022/03/28 05:39:36;;;;;;;19.58;2.60;;;24.30;43.00;;;;;;4977828;28;20655;-65
2022/03/28 05:42:04;;;;;;;15.90;3.08;;;24.20;42.70;;;;;;4978988;28;20561;-66
2022/03/28 05:44:31;;;;;;;14.13;2.47;;;24.10;42.60;;;;;;4961932;28;20655;-65
2022/03/28 05:46:57;;;;;;;15.82;2.83;;;24.10;42.50;;;;;;4987575;28;20449;-66
2022/03/28 05:49:24;;;;;;;14.98;2.45;;;24.10;42.40;;;;;;4985248;28;20078;-66
2022/03/28 05:51:51;;;;;;;8.90;2.22;;;24.20;42.10;;;;;;4969383;28;20070;-67
2022/03/28 05:54:18;;;;;;;10.60;2.35;;;24.20;42.00;;;;;;4973985;28;20071;-65
2022/03/28 05:56:45;;;;;;;15.23;2.28;;;24.10;42.00;;;;;;4978172;28;20507;-66
2022/03/28 05:59:12;;;;;;;10.27;2.20;;;24.10;41.90;;;;;;4979924;28;20074;-65
2022/03/28 06:01:38;;;;;;;11.00;2.10;;;24.10;41.90;;;;;;4976835;28;20586;-65
2022/03/28 06:04:05;;;;;;;16.80;2.72;;;24.10;41.90;;;;;;4980672;28;20081;-70
2022/03/28 06:06:35;;;;;;;15.98;2.67;;;24.10;42.10;;;;;;4983928;28;20062;-72
2022/03/28 06:09:02;;;;;;;12.95;2.53;;;24.10;42.30;;;;;;4975819;28;20547;-72
2022/03/28 06:11:29;;;;;;;18.05;2.55;;;24.10;42.70;;;;;;4981200;28;20071;-71
2022/03/28 06:13:58;;;;;;;15.00;2.28;;;24.10;42.60;;;;;;4977926;28;20106;-71
2022/03/28 06:16:25;;;;;;;9.18;2.20;;;24.10;42.70;;;;;;4971068;28;20089;-70
2022/03/28 06:18:52;;;;;;;9.18;2.03;;;24.10;42.80;;;;;;4971709;28;20074;-71
2022/03/28 06:21:18;;;;;;;9.10;2.10;;;24.10;42.90;;;;;;4989784;28;20078;-68
2022/03/28 06:23:45;;;;;;;12.35;2.60;;;24.10;43.00;;;;;;4976291;28;20104;-69
2022/03/28 06:26:12;;;;;;;13.32;5.15;;;24.00;43.10;;;;;;4956261;28;20157;-70
2022/03/28 06:28:40;;;;;;;9.98;2.50;;;24.00;43.40;;;;;;4983930;28;20518;-69
2022/03/28 06:31:07;;;;;;;8.15;2.53;;;23.90;43.70;;;;;;4987526;28;20110;-69
2022/03/28 06:33:34;;;;;;;16.27;2.67;;;24.00;44.10;;;;;;4971142;28;20086;-68
2022/03/28 06:36:00;;;;;;;6.88;1.75;;;24.00;44.20;;;;;;4989915;28;20098;-72
2022/03/28 06:38:27;;;;;;;11.10;2.42;;;23.90;44.40;;;;;;4993521;28;20082;-71
2022/03/28 06:40:53;;;;;;;7.00;2.33;;;24.00;44.40;;;;;;4986294;28;20190;-69
2022/03/28 06:43:20;;;;;;;9.40;2.90;;;24.00;44.40;;;;;;4989818;28;20121;-70
2022/03/28 06:45:47;;;;;;;9.85;2.20;;;23.90;44.40;;;;;;4988614;28;20459;-69
2022/03/28 06:48:14;;;;;;;7.22;1.80;;;23.90;44.40;;;;;;4987751;28;20093;-69
2022/03/28 06:50:41;;;;;;;10.82;2.45;;;23.90;44.70;;;;;;4985450;28;20123;-70
2022/03/28 06:53:07;;;;;;;7.78;2.03;;;23.80;44.80;;;;;;4987693;28;20148;-69
2022/03/28 06:55:34;;;;;;;10.95;2.83;;;23.70;45.10;;;;;;4984544;28;20090;-70
2022/03/28 06:58:00;;;;;;;16.10;3.08;;;23.70;45.30;;;;;;4988008;28;20097;-69
2022/03/28 07:00:26;;;;;;;17.30;3.13;;;23.70;45.40;;;;;;4987833;28;20098;-68
2022/03/28 07:02:53;;;;;;;8.43;2.40;;;23.70;45.40;;;;;;4989212;28;20550;-68
2022/03/28 07:05:19;;;;;;;11.90;2.33;;;23.70;45.10;;;;;;4990407;28;20077;-71
2022/03/28 07:07:48;;;;;;;11.77;2.13;;;23.70;44.80;;;;;;4978966;28;20077;-71
2022/03/28 07:10:20;;;;;;;11.70;2.35;;;23.70;44.70;;;;;;4982541;28;20085;-71
2022/03/28 07:12:47;;;;;;;9.80;2.33;;;23.70;44.70;;;;;;4986758;28;20070;-67
2022/03/28 07:15:14;;;;;;;15.02;3.40;;;23.60;44.50;;;;;;4985265;28;20479;-71
2022/03/28 07:17:54;;;;;;;12.25;2.83;;;23.60;44.60;;;;;;4985857;28;20471;-71
2022/03/28 07:20:29;;;;;;;9.05;1.70;;;23.60;44.90;;;;;;4973244;28;20275;-68
2022/03/28 07:22:56;;;;;;;10.55;1.90;;;23.60;45.40;;;;;;4989120;28;20108;-70
2022/03/28 07:25:25;;;;;;;10.57;1.98;;;23.50;45.60;;;;;;4973439;28;20110;-72
2022/03/28 07:27:52;;;;;;;13.02;1.90;;;23.50;45.70;;;;;;4981351;28;20120;-70
2022/03/28 07:30:20;;;;;;;16.40;2.33;;;23.40;45.90;;;;;;4949820;28;20082;-69
2022/03/28 07:32:47;;;;;;;12.55;2.33;;;23.40;46.40;;;;;;4988108;28;20163;-69
2022/03/28 07:35:15;;;;;;;13.25;1.88;;;23.30;46.60;;;;;;4988686;28;20099;-70
2022/03/28 07:37:43;;;;;;;9.05;1.95;;;23.30;46.40;;;;;;4984294;28;20447;-70
2022/03/28 07:40:10;;;;;;;5.85;1.50;;;23.30;45.90;;;;;;4997659;28;20069;-72
2022/03/28 07:42:38;;;;;;;8.68;1.90;;;23.30;45.50;;;;;;4989050;28;20088;-69
2022/03/28 07:45:08;;;;;;;12.43;1.58;;;23.30;45.00;;;;;;4987620;28;20117;-69
2022/03/28 07:47:36;;;;;;;9.25;1.70;;;23.30;44.70;;;;;;4985702;28;20522;-70
2022/03/28 07:50:03;;;;;;;9.82;1.70;;;23.30;44.50;;;;;;4985620;28;20070;-71
2022/03/28 07:52:30;;;;;;;7.72;1.50;;;23.30;44.40;;;;;;4987980;28;20593;-69
2022/03/28 07:55:00;;;;;;;11.88;2.05;;;23.20;44.30;;;;;;4983551;28;20170;-71
2022/03/28 07:57:27;;;;;;;12.68;1.88;;;23.30;44.30;;;;;;4967792;28;20124;-71
2022/03/28 07:59:53;;;;;;;11.07;2.05;;;23.30;44.50;;;;;;4982890;28;20078;-71
2022/03/28 08:02:20;;;;;;;10.95;1.83;;;23.30;44.50;;;;;;4984195;28;20562;-69
2022/03/28 08:04:46;;;;;;;7.70;1.95;;;23.20;44.50;;;;;;4985509;28;20153;-73
2022/03/28 08:07:13;;;;;;;9.85;1.60;;;23.20;44.50;;;;;;4983724;28;20074;-70
2022/03/28 08:09:41;;;;;;;7.20;1.70;;;23.20;44.50;;;;;;4985662;28;20110;-70
2022/03/28 08:12:09;;;;;;;10.90;1.70;;;23.20;44.80;;;;;;4989142;28;20058;-71
2022/03/28 08:14:36;;;;;;;12.52;1.90;;;23.20;45.10;;;;;;4980753;28;20076;-70
2022/03/28 08:17:04;;;;;;;10.93;2.20;;;23.10;45.30;;;;;;4998576;28;20152;-69
2022/03/28 08:19:30;;;;;;;7.75;1.58;;;23.00;45.50;;;;;;4983536;28;20445;-72
2022/03/28 08:21:56;;;;;;;10.35;2.03;;;23.00;45.70;;;;;;4987178;28;20076;-72
2022/03/28 08:24:23;;;;;;;10.57;1.77;;;23.00;45.70;;;;;;4998225;28;20076;-70
2022/03/28 08:26:49;;;;;;;7.70;1.55;;;23.00;45.90;;;;;;4983470;28;20107;-71
2022/03/28 08:29:17;;;;;;;9.95;2.35;;;23.00;45.90;;;;;;4981098;28;20066;-67
2022/03/28 08:31:43;;;;;;;6.25;2.00;;;23.20;45.50;;;;;;4973691;28;20082;-67
2022/03/28 08:34:11;;;;;;;7.43;1.50;;;23.40;44.70;;;;;;4982128;28;20085;-68
2022/03/28 08:36:37;;;;;;;9.60;1.50;;;23.60;44.10;;;;;;4984328;28;20084;-69
2022/03/28 08:39:05;;;;;;;12.00;2.25;;;23.70;43.50;;;;;;4983501;28;20540;-70
2022/03/28 08:41:33;;;;;;;7.85;1.88;;;23.80;42.90;;;;;;4985822;28;20074;-66
2022/03/28 08:44:00;;;;;;;13.27;2.10;;;23.70;42.50;;;;;;4985955;28;20090;-66
2022/03/28 08:46:29;;;;;;;4.45;1.58;;;23.70;42.00;;;;;;4972189;28;20105;-66
2022/03/28 08:48:57;;;;;;;9.38;1.70;;;23.70;41.50;;;;;;4987523;28;20118;-69
2022/03/28 08:51:24;;;;;;;9.55;2.17;;;23.90;40.70;;;;;;4981886;28;20149;-66
2022/03/28 08:53:50;;;;;;;8.32;1.88;;;23.80;40.30;;;;;;4982083;28;20509;-67
2022/03/28 08:56:17;;;;;;;9.65;2.25;;;23.80;40.00;;;;;;4985377;28;20093;-67
2022/03/28 08:58:43;;;;;;;11.70;2.22;;;23.80;39.90;;;;;;4980972;28;20074;-67
2022/03/28 09:01:11;;;;;;;13.55;1.85;;;23.70;39.80;;;;;;4984864;28;20528;-65
2022/03/28 09:03:41;;;;;;;5.90;1.75;;;23.70;39.70;;;;;;4996804;28;20451;-66
2022/03/28 09:06:45;;;;;;;14.75;2.05;;;23.90;39.70;;;;;;4983948;28;20176;-66
2022/03/28 09:09:21;;;;;;;8.02;1.60;;;23.90;39.40;;;;;;4987026;28;20069;-68
2022/03/28 09:11:53;;;;;;;11.32;2.08;;;23.90;39.20;;;;;;4996064;28;20709;-66
2022/03/28 09:14:34;;;;;;;10.40;1.67;;;23.70;39.50;;;;;;4982722;28;20564;-66
2022/03/28 09:17:05;;;;;;;9.30;1.90;;;23.70;39.80;;;;;;4982695;28;20106;-66
2022/03/28 09:19:53;;;;;;;7.97;1.95;;;23.60;39.80;;;;;;4983994;28;20131;-66
2022/03/28 09:22:29;;;;;;;11.80;2.30;;;23.60;40.20;;;;;;4981595;28;20097;-68
2022/03/28 09:25:03;;;;;;;7.53;2.35;;;23.60;40.00;;;;;;4982854;28;20073;-66
2022/03/28 09:27:41;;;;;;;11.23;2.08;;;23.70;40.20;;;;;;4981312;28;20489;-67
2022/03/28 09:30:11;;;;;;;14.50;2.38;;;23.60;40.20;;;;;;4997797;28;20066;-67
2022/03/28 09:32:52;;;;;;;8.93;1.65;;;23.40;40.60;;;;;;4982365;28;20082;-66
2022/03/28 09:35:20;;;;;;;17.10;2.05;;;23.50;40.50;;;;;;4971081;28;20726;-67
2022/03/28 09:38:02;;;;;;;8.75;1.60;;;23.50;40.20;;;;;;4982318;28;20089;-66
2022/03/28 09:40:52;;;;;;;22.15;2.10;;;23.50;39.90;;;;;;4984839;28;20584;-67
2022/03/28 09:43:22;;;;;;;12.13;1.92;;;23.50;40.00;;;;;;4991596;28;20091;-68
2022/03/28 09:45:54;;;;;;;7.28;1.90;;;23.50;39.70;;;;;;4988121;28;20588;-67
2022/03/28 09:48:24;;;;;;;9.25;1.83;;;23.50;39.40;;;;;;4986809;28;20114;-66
2022/03/28 09:51:03;;;;;;;7.90;2.00;;;23.40;39.50;;;;;;4987499;28;20069;-66
2022/03/28 09:53:32;;;;;;;17.38;2.67;;;23.40;39.30;;;;;;4986625;28;20078;-66
2022/03/28 09:56:02;;;;;;;8.57;1.80;;;23.30;39.60;;;;;;4990002;28;20171;-68
2022/03/28 09:58:49;;;;;;;10.60;1.80;;;23.40;39.80;;;;;;4983417;28;20078;-67
2022/03/28 10:01:20;;;;;;;17.00;2.15;;;23.40;39.60;;;;;;5000782;28;20448;-68
2022/03/28 10:03:52;;;;;;;14.30;2.30;;;23.40;39.80;;;;;;4988929;28;20604;-66
2022/03/28 10:06:19;;;;;;;14.40;2.47;;;23.40;39.80;;;;;;4975517;28;20193;-66
2022/03/28 10:08:46;;;;;;;11.68;2.05;;;23.40;40.00;;;;;;4988984;28;20133;-68
2022/03/28 10:11:14;;;;;;;16.77;2.83;;;23.40;40.20;;;;;;4987507;28;20161;-68
2022/03/28 10:13:41;;;;;;;13.52;1.90;;;23.30;40.60;;;;;;4985573;28;20108;-70
2022/03/28 10:16:08;;;;;;;12.15;1.92;;;23.30;40.60;;;;;;4990499;28;20082;-68
2022/03/28 10:18:36;;;;;;;9.45;1.83;;;23.30;40.60;;;;;;4985840;28;20482;-68
2022/03/28 10:21:39;;;;;;;8.05;1.75;;;23.30;40.80;;;;;;5001909;28;20080;-68
2022/03/28 10:24:11;;;;;;;16.20;2.25;;;23.20;40.80;;;;;;4984406;28;20160;-70
2022/03/28 10:26:42;;;;;;;9.05;1.60;;;23.20;40.90;;;;;;4986339;28;20074;-67
2022/03/28 10:29:10;;;;;;;9.13;2.05;;;23.20;41.20;;;;;;4976842;28;20098;-66
2022/03/28 10:31:56;;;;;;;12.18;2.60;;;23.20;41.10;;;;;;4985623;28;20070;-69
2022/03/28 10:34:43;;;;;;;17.50;2.47;;;23.20;40.80;;;;;;4999699;28;20075;-67
2022/03/28 10:37:36;;;;;;;12.80;1.90;;;23.20;41.00;;;;;;4973364;28;20366;-67
2022/03/28 10:40:22;;;;;;;16.55;2.40;;;23.10;40.70;;;;;;4983582;28;20073;-70
2022/03/28 10:43:10;;;;;;;11.33;2.37;;;22.90;40.80;;;;;;4988767;28;20101;-70
2022/03/28 10:45:36;;;;;;;;;;;23.00;40.80;;;;;;4984228;28;20557;-67
2022/03/28 10:48:04;;;;;;;13.73;2.67;;;23.00;40.80;;;;;;5000904;28;20052;-67
2022/03/28 10:50:36;;;;;;;13.20;2.53;;;23.10;41.40;;;;;;4989255;28;20546;-69
2022/03/28 10:53:29;;;;;;;10.40;2.33;;;23.10;40.50;;;;;;4975191;28;20740;-70
2022/03/28 10:56:05;;;;;;;10.18;2.45;;;23.10;40.40;;;;;;4987745;28;20105;-68
2022/03/28 10:58:43;;;;;;;12.15;1.95;;;22.90;40.60;;;;;;4989297;28;20078;-68
2022/03/28 11:01:12;;;;;;;16.17;2.45;;;22.90;40.80;;;;;;4957552;28;20082;-67
2022/03/28 11:03:42;;;;;;;12.25;2.40;;;22.90;40.80;;;;;;4988111;28;20089;-70
2022/03/28 11:06:09;;;;;;;17.30;2.85;;;23.00;40.80;;;;;;4989338;28;20096;-67
2022/03/28 11:08:40;;;;;;;16.30;3.00;;;23.00;40.50;;;;;;4989142;28;20092;-70
2022/03/28 11:11:18;;;;;;;13.68;2.65;;;22.90;40.70;;;;;;4985931;28;20065;-69
2022/03/28 11:14:00;;;;;;;9.70;2.47;;;22.80;40.80;;;;;;4988479;28;20081;-68
2022/03/28 11:16:50;;;;;;;14.98;2.45;;;22.80;40.90;;;;;;4987425;28;20441;-68
2022/03/28 11:19:29;;;;;;;12.60;2.28;;;22.90;41.30;;;;;;4981518;28;20082;-69
2022/03/28 11:22:05;;;;;;;13.55;1.92;;;22.90;40.90;;;;;;4972967;28;20121;-67
2022/03/28 11:24:49;;;;;;;15.40;2.10;;;22.80;40.90;;;;;;4997610;28;20075;-69
2022/03/28 11:27:17;;;;;;;11.63;2.38;;;22.70;41.30;;;;;;4984710;28;20081;-68
2022/03/28 11:29:45;;;;;;;14.65;2.63;;;22.70;41.50;;;;;;4985204;28;20140;-70
2022/03/28 11:32:15;;;;;;;12.95;2.60;;;22.60;41.80;;;;;;4984473;28;20133;-67
2022/03/28 11:34:51;;;;;;;15.07;2.25;;;22.60;41.80;;;;;;4990173;28;20136;-68
2022/03/28 11:37:25;;;;;;;16.40;2.80;;;22.50;41.90;;;;;;4990105;28;20098;-68
2022/03/28 11:40:05;;;;;;;14.18;2.10;;;22.60;42.00;;;;;;4984589;28;20070;-69
2022/03/28 11:42:33;;;;;;;11.20;2.50;;;22.70;42.20;;;;;;5000066;28;20090;-69
2022/03/28 11:45:11;;;;;;;14.00;2.03;;;22.70;41.90;;;;;;5006290;28;20141;-70
2022/03/28 11:47:40;;;;;;;12.50;2.47;;;22.60;41.80;;;;;;4986423;28;20441;-67
2022/03/28 11:50:08;;;;;;;22.25;2.53;;;22.60;42.10;;;;;;4990389;28;20100;-68
2022/03/28 11:52:36;;;;;;;15.10;1.90;;;22.60;42.30;;;;;;4981777;28;20085;-66
2022/03/28 11:55:17;;;;;;;13.70;2.30;;;22.60;42.30;;;;;;4985077;28;20069;-70
2022/03/28 12:00:34;;;;;;;12.45;2.50;;;22.50;42.50;;;;;;4985810;28;20581;-67
2022/03/28 12:03:00;;;;;;;19.10;2.90;;;22.60;43.10;;;;;;4987587;28;20087;-69
2022/03/28 12:06:01;;;;;;;19.02;2.90;;;22.50;43.20;;;;;;4999890;28;20100;-71
2022/03/28 12:08:29;;;;;;;12.43;2.58;;;22.50;43.40;;;;;;4979744;28;20079;-69
2022/03/28 12:10:56;;;;;;;15.98;2.47;;;22.60;43.80;;;;;;4988289;28;20089;-70
2022/03/28 12:13:24;;;;;;;12.00;2.95;;;22.50;44.30;;;;;;4986294;28;20459;-69
2022/03/28 12:15:54;;;;;;;15.18;2.55;;;22.50;44.60;;;;;;4978494;28;20098;-67
2022/03/28 12:18:23;;;;;;;9.68;2.17;;;22.50;44.70;;;;;;4984583;28;20132;-67
2022/03/28 12:20:54;;;;;;;9.10;2.22;;;22.40;44.80;;;;;;4987010;28;20534;-70
2022/03/28 12:23:25;;;;;;;14.52;2.55;;;22.40;45.00;;;;;;4971611;28;20446;-68
2022/03/28 12:25:54;;;;;;;9.95;2.42;;;22.40;45.60;;;;;;4997980;28;20075;-68
2022/03/28 12:28:36;;;;;;;12.35;2.60;;;22.40;45.70;;;;;;4971804;28;20550;-68
2022/03/28 12:31:05;;;;;;;11.45;2.33;;;22.40;45.50;;;;;;4971803;28;20200;-67
2022/03/28 12:33:38;;;;;;;7.63;2.28;;;22.40;46.30;;;;;;4955715;28;20683;-68
2022/03/28 12:36:14;;;;;;;12.70;3.00;;;22.30;45.40;;;;;;4990237;28;20431;-70
2022/03/28 12:38:45;;;;;;;13.80;3.47;;;22.10;45.60;;;;;;4987064;28;20140;-71
2022/03/28 12:41:17;;;;;;;18.65;3.00;;;22.00;45.90;;;;;;4971596;28;20110;-69
2022/03/28 12:43:48;;;;;;;11.73;2.72;;;22.00;46.10;;;;;;4987090;28;20496;-67
2022/03/28 12:46:18;;;;;;;13.27;3.20;;;22.00;46.10;;;;;;4984314;28;20101;-68
2022/03/28 12:48:49;;;;;;;14.65;2.95;;;22.00;46.00;;;;;;4972890;28;20070;-67
2022/03/28 12:51:33;;;;;;;19.20;3.22;;;22.10;46.20;;;;;;4973119;28;20089;-68
2022/03/28 12:54:05;;;;;;;21.08;2.85;;;22.00;46.00;;;;;;4981723;28;20552;-69
2022/03/28 12:56:51;;;;;;;19.15;3.15;;;21.90;45.40;;;;;;4969393;28;20095;-68